Time;durP1;ratioP1;P1;durP2;ratioP2;P2;SDS_P1;SDS_P2;PMS_P1;PMS_P2;Temp;Humidity;BMP_temperature;BMP_pressure;BME280_temperature;BME280_humidity;BME280_pressure;Samples;Min_cycle;Max_cycle;Signal;HPM_P1;HPM_P2
2022/05/22 00:02:04;;;;;;;14.70;2.75;;;12.60;99.90;;;11.36;100.00;101196.28;4965612;28;20413;-73
2022/05/22 00:04:30;;;;;;;11.00;2.40;;;12.50;99.90;;;11.30;100.00;101194.78;4975973;28;20041;-73
2022/05/22 00:06:56;;;;;;;19.00;2.95;;;12.50;99.90;;;11.28;100.00;101192.19;4992253;28;20026;-73
2022/05/22 00:09:22;;;;;;;17.20;3.00;;;12.50;99.90;;;11.25;100.00;101196.72;4980453;28;20038;-74
2022/05/22 00:11:48;;;;;;;15.25;3.13;;;12.50;99.90;;;11.29;100.00;101201.84;4990495;28;20109;-73
2022/05/22 00:14:14;;;;;;;15.38;2.80;;;12.60;99.90;;;11.29;100.00;101193.94;4981594;28;20038;-73
2022/05/22 00:16:41;;;;;;;19.35;2.50;;;12.50;99.90;;;11.33;100.00;101193.78;4981155;28;20034;-73
2022/05/22 00:19:23;;;;;;;14.82;3.05;;;12.50;99.90;;;11.28;100.00;101191.34;4942776;28;20034;-73
2022/05/22 00:21:50;;;;;;;19.55;2.63;;;12.50;99.90;;;11.25;100.00;101194.97;4988188;28;20065;-73
2022/05/22 00:24:21;;;;;;;23.27;3.08;;;12.50;99.90;;;11.29;100.00;101188.66;4980596;28;20041;-73
2022/05/22 00:26:48;;;;;;;16.98;2.88;;;12.40;99.90;;;11.26;100.00;101186.13;4971531;28;20088;-74
2022/05/22 00:29:16;;;;;;;18.50;3.15;;;12.50;99.90;;;11.26;100.00;101190.56;5006732;28;20159;-73
2022/05/22 00:31:42;;;;;;;22.83;2.95;;;12.50;99.90;;;11.28;100.00;101188.72;4980890;28;20525;-74
2022/05/22 00:34:08;;;;;;;;;;;12.50;99.90;;;11.25;100.00;101194.97;4972886;28;20067;-73
2022/05/22 00:36:37;;;;;;;17.23;2.38;;;12.40;99.90;;;11.26;100.00;101194.03;4967930;28;20412;-73
2022/05/22 00:39:03;;;;;;;17.00;2.85;;;12.50;99.90;;;11.36;100.00;101191.88;4984979;28;20041;-73
2022/05/22 00:41:30;;;;;;;13.50;2.95;;;12.50;99.90;;;11.39;100.00;101197.03;5010360;28;20033;-72
2022/05/22 00:43:57;;;;;;;18.45;2.97;;;12.60;99.90;;;11.43;100.00;101190.69;4980070;28;20494;-74
2022/05/22 00:46:24;;;;;;;12.43;2.50;;;12.60;99.90;;;11.37;100.00;101190.94;4973315;28;20425;-73
2022/05/22 00:49:00;;;;;;;18.05;3.17;;;12.60;99.90;;;11.37;100.00;101196.22;4991004;28;20030;-73
2022/05/22 00:51:44;;;;;;;14.32;3.15;;;12.50;99.90;;;11.33;100.00;101189.38;4956239;28;20010;-73
2022/05/22 00:54:14;;;;;;;13.95;3.20;;;12.50;99.90;;;11.23;100.00;101195.94;4968803;28;20034;-73
2022/05/22 00:56:48;;;;;;;26.00;3.60;;;12.40;99.90;;;11.15;100.00;101191.00;4990625;28;20148;-71
2022/05/22 00:59:22;;;;;;;19.77;3.65;;;12.40;99.90;;;11.09;100.00;101180.72;4989285;28;20113;-72
2022/05/22 01:01:48;;;;;;;18.60;2.83;;;12.30;99.90;;;11.02;100.00;101190.66;4983524;28;20116;-73
2022/05/22 01:04:22;;;;;;;17.48;2.90;;;12.20;99.90;;;10.94;100.00;101189.25;4980213;28;20486;-73
2022/05/22 01:06:47;;;;;;;15.20;2.95;;;12.20;99.90;;;10.87;100.00;101183.38;4971758;28;20053;-73
2022/05/22 01:09:13;;;;;;;12.30;3.20;;;12.10;99.90;;;10.85;100.00;101183.44;4983350;28;20524;-73
2022/05/22 01:11:39;;;;;;;11.75;2.83;;;12.10;99.90;;;10.82;100.00;101180.06;4991906;28;20097;-73
2022/05/22 01:14:15;;;;;;;;;;;12.10;99.90;;;10.69;100.00;101179.72;4991976;28;20750;-73
2022/05/22 01:16:42;;;;;;;22.05;3.30;;;11.90;99.90;;;10.66;100.00;101188.56;4987136;28;19917;-74
2022/05/22 01:19:21;;;;;;;16.73;3.35;;;11.90;99.90;;;10.66;100.00;101182.44;4980128;28;20476;-73
2022/05/22 01:22:15;;;;;;;17.02;3.83;;;11.90;99.90;;;10.64;100.00;101181.66;4981782;28;20045;-73
2022/05/22 01:24:41;;;;;;;17.52;3.70;;;11.90;99.90;;;10.59;100.00;101183.63;4981729;28;21482;-73
2022/05/22 01:27:13;;;;;;;25.05;4.47;;;11.90;99.90;;;10.57;100.00;101178.41;4972935;28;20101;-73
2022/05/22 01:29:39;;;;;;;17.23;3.85;;;11.80;99.90;;;10.59;100.00;101183.63;4980503;28;20041;-73
2022/05/22 01:32:05;;;;;;;17.15;3.40;;;11.90;99.90;;;10.61;100.00;101177.38;4996511;28;20548;-73
2022/05/22 01:34:31;;;;;;;21.17;4.10;;;11.90;99.90;;;10.67;100.00;101174.50;4964386;28;20096;-74
2022/05/22 01:36:57;;;;;;;19.02;4.03;;;12.00;99.90;;;10.77;100.00;101184.66;4989292;28;20084;-73
2022/05/22 01:39:23;;;;;;;15.40;3.40;;;12.00;99.90;;;10.84;100.00;101181.72;4981710;28;20447;-73
2022/05/22 01:41:50;;;;;;;22.17;3.72;;;12.10;99.90;;;10.96;100.00;101180.34;4973281;28;20048;-73
2022/05/22 01:44:16;;;;;;;12.63;3.75;;;12.20;99.90;;;11.10;100.00;101185.06;4999901;28;20068;-73
2022/05/22 01:46:42;;;;;;;14.77;3.67;;;12.30;99.90;;;11.18;100.00;101182.97;4989557;28;20029;-73
2022/05/22 01:49:09;;;;;;;;;;;12.30;99.90;;;11.24;100.00;101187.97;4989721;28;20034;-73
2022/05/22 01:51:38;;;;;;;;;;;12.30;99.90;;;11.22;100.00;101181.91;4988893;28;20286;-73
2022/05/22 01:54:05;;;;;;;16.88;3.38;;;12.40;99.90;;;11.20;100.00;101186.38;4987139;28;19910;-73
2022/05/22 01:56:33;;;;;;;13.85;3.50;;;12.30;99.90;;;11.20;100.00;101183.75;4971428;28;20076;-73
2022/05/22 01:58:59;;;;;;;26.55;3.75;;;12.40;99.90;;;11.24;100.00;101187.97;4994470;28;20072;-73
2022/05/22 02:01:25;;;;;;;26.67;3.75;;;12.40;99.90;;;11.22;100.00;101181.06;4991912;28;20038;-74
2022/05/22 02:03:50;;;;;;;18.25;3.95;;;12.40;99.90;;;11.26;100.00;101185.28;4986691;28;20375;-74
2022/05/22 02:06:16;;;;;;;19.63;3.95;;;12.40;99.90;;;11.26;100.00;101180.00;4989471;28;20030;-73
2022/05/22 02:08:42;;;;;;;24.65;3.90;;;12.40;99.90;;;11.26;100.00;101178.22;4979083;28;20018;-74
2022/05/22 02:11:08;;;;;;;14.48;3.60;;;12.40;99.90;;;11.21;100.00;101179.31;4988341;28;20018;-73
2022/05/22 02:13:44;;;;;;;19.27;4.18;;;12.40;99.90;;;11.16;100.00;101178.69;4987429;28;20048;-73
2022/05/22 02:16:10;;;;;;;17.50;3.53;;;12.20;99.90;;;11.05;100.00;101172.06;4991799;28;20033;-73
2022/05/22 02:18:35;;;;;;;18.77;4.00;;;12.20;99.90;;;10.93;100.00;101164.69;4974793;28;20030;-73
2022/05/22 02:21:02;;;;;;;19.20;4.15;;;12.10;99.90;;;10.85;100.00;101167.63;4984154;28;20394;-74
2022/05/22 02:23:27;;;;;;;24.50;4.30;;;12.00;99.90;;;10.78;100.00;101176.69;4992817;28;20576;-73
2022/05/22 02:25:55;;;;;;;17.63;3.72;;;12.00;99.90;;;10.72;100.00;101179.56;4989975;28;20034;-74
2022/05/22 02:28:24;;;;;;;19.52;4.13;;;11.90;99.90;;;10.70;100.00;101170.88;4992956;28;20049;-73
2022/05/22 02:31:01;;;;;;;20.35;3.65;;;11.90;99.90;;;10.70;100.00;101178.78;4982391;28;20161;-74
2022/05/22 02:33:27;;;;;;;16.55;3.72;;;11.90;99.90;;;10.68;100.00;101181.47;4968399;28;20129;-73
2022/05/22 02:35:53;;;;;;;23.58;4.18;;;11.90;99.90;;;10.64;100.00;101185.13;4992631;28;20120;-74
2022/05/22 02:38:19;;;;;;;22.40;4.20;;;11.90;99.90;;;10.62;100.00;101184.34;4986513;28;20049;-73
2022/05/22 02:40:45;;;;;;;24.15;4.28;;;11.90;99.90;;;10.67;100.00;101185.03;4984411;28;20105;-73
2022/05/22 02:43:11;;;;;;;22.48;4.80;;;11.90;99.90;;;10.71;100.00;101184.91;4974861;28;20449;-73
2022/05/22 02:45:39;;;;;;;31.02;4.50;;;11.90;99.90;;;10.74;100.00;101193.53;4984613;28;20059;-73
2022/05/22 02:48:06;;;;;;;13.75;3.67;;;11.90;99.90;;;10.79;100.00;101185.47;4974515;28;20099;-72
2022/05/22 02:50:34;;;;;;;18.30;3.80;;;12.00;99.90;;;10.80;100.00;101184.56;4994292;28;20493;-73
2022/05/22 02:53:00;;;;;;;26.52;4.25;;;12.00;99.90;;;10.81;100.00;101181.84;4993746;28;20018;-73
2022/05/22 02:55:26;;;;;;;;;;;12.00;99.90;;;10.76;100.00;101181.19;4985247;28;20026;-74
2022/05/22 02:57:52;;;;;;;18.63;3.85;;;12.00;99.90;;;10.75;100.00;101174.16;4983176;28;20377;-73
2022/05/22 03:00:24;;;;;;;16.70;4.07;;;12.00;99.90;;;10.77;100.00;101174.13;4984401;28;20065;-73
2022/05/22 03:02:53;;;;;;;22.70;4.57;;;12.00;99.90;;;10.69;100.00;101171.81;4958457;28;20103;-73
2022/05/22 03:05:20;;;;;;;15.43;4.05;;;11.90;99.90;;;10.69;100.00;101174.44;4965546;28;20033;-74
2022/05/22 03:07:46;;;;;;;12.30;4.15;;;11.90;99.90;;;10.67;100.00;101176.28;4985333;28;20049;-73
2022/05/22 03:10:19;;;;;;;15.50;3.53;;;11.90;99.90;;;10.64;100.00;101174.59;5003968;28;20040;-73
2022/05/22 03:12:45;;;;;;;27.38;4.35;;;11.90;99.90;;;10.65;100.00;101181.59;4991322;28;20973;-73
2022/05/22 03:15:13;;;;;;;16.88;4.18;;;11.90;99.90;;;10.62;100.00;101186.97;4990401;28;22992;-73
2022/05/22 03:17:39;;;;;;;18.80;3.72;;;11.90;99.90;;;10.62;100.00;101181.69;4973277;28;20029;-73
2022/05/22 03:20:06;;;;;;;13.90;4.15;;;11.90;99.90;;;10.63;100.00;101180.81;4974867;28;20052;-73
2022/05/22 03:22:32;;;;;;;21.58;3.97;;;11.90;99.90;;;10.67;100.00;101186.81;4971644;28;20038;-73
2022/05/22 03:24:57;;;;;;;21.38;4.95;;;11.90;99.90;;;10.68;100.00;101186.72;5016588;28;20041;-72
2022/05/22 03:27:23;;;;;;;23.92;4.50;;;11.90;99.90;;;10.72;100.00;101174.31;4983433;28;20030;-73
2022/05/22 03:29:49;;;;;;;;;;;11.90;99.90;;;10.71;100.00;101175.22;4984708;28;20042;-74
2022/05/22 03:32:15;;;;;;;21.20;4.05;;;11.90;99.90;;;10.73;100.00;101170.75;4992200;28;20393;-73
2022/05/22 03:34:42;;;;;;;18.40;4.40;;;11.90;99.90;;;10.78;100.00;101176.69;4981279;28;20034;-73
2022/05/22 03:37:08;;;;;;;21.02;4.70;;;12.00;99.90;;;10.90;100.00;101177.13;4983615;28;20100;-73
2022/05/22 03:39:34;;;;;;;23.70;3.95;;;12.00;99.90;;;11.02;100.00;101174.00;4991048;28;20051;-73
2022/05/22 03:42:00;;;;;;;;;;;12.00;99.90;;;11.05;100.00;101177.34;4992085;28;20061;-73
2022/05/22 03:44:26;;;;;;;22.80;3.95;;;12.20;99.90;;;11.13;100.00;101174.41;4981789;28;19924;-73
2022/05/22 03:46:52;;;;;;;13.93;4.03;;;12.30;99.90;;;11.23;100.00;101183.63;4972784;28;20026;-73
2022/05/22 03:49:18;;;;;;;;;;;12.20;99.90;;;11.33;100.00;101176.19;4974666;28;20049;-73
2022/05/22 03:51:44;;;;;;;14.88;4.40;;;12.40;99.90;;;11.38;100.00;101182.13;4990825;28;19924;-73
2022/05/22 03:54:10;;;;;;;13.48;4.35;;;12.40;99.90;;;11.44;100.00;101181.00;4967640;28;20450;-74
2022/05/22 03:56:39;;;;;;;14.60;4.05;;;12.50;99.90;;;11.47;100.00;101175.59;4992603;28;20038;-74
2022/05/22 03:59:04;;;;;;;20.52;4.40;;;12.50;99.90;;;11.53;100.00;101180.59;4991796;28;20555;-73
2022/05/22 04:01:30;;;;;;;;;;;12.50;99.90;;;11.58;100.00;101189.19;4998149;28;20034;-74
2022/05/22 04:03:56;;;;;;;16.52;4.53;;;12.60;99.90;;;11.64;100.00;101188.91;4974977;28;20289;-73
2022/05/22 04:06:22;;;;;;;21.30;4.38;;;12.70;99.90;;;11.74;100.00;101191.16;4990658;28;20033;-74
2022/05/22 04:08:48;;;;;;;21.77;4.50;;;12.70;99.90;;;11.82;100.00;101187.25;4993294;28;20026;-73
2022/05/22 04:11:17;;;;;;;;;;;12.70;99.90;;;11.92;100.00;101192.13;4996933;28;20044;-73
2022/05/22 04:13:43;;;;;;;17.85;4.55;;;12.90;99.90;;;12.06;100.00;101200.31;5013509;28;20004;-73
2022/05/22 04:16:09;;;;;;;20.83;4.95;;;13.00;99.90;;;12.19;100.00;101190.03;5003761;28;20446;-73
2022/05/22 04:18:35;;;;;;;16.90;5.00;;;13.10;99.90;;;12.27;100.00;101193.19;4994940;28;20037;-73
2022/05/22 04:21:02;;;;;;;15.30;5.20;;;13.20;99.90;;;12.34;100.00;101202.53;4983569;28;20117;-73
2022/05/22 04:26:12;;;;;;;16.90;3.72;;;13.30;99.90;;;12.36;100.00;101205.09;4990772;28;20089;-73
2022/05/22 04:28:38;;;;;;;12.15;3.83;;;13.30;99.90;;;12.37;100.00;101210.28;4982796;28;21352;-73
2022/05/22 04:31:04;;;;;;;17.98;4.28;;;13.30;99.90;;;12.37;100.00;101215.56;4982612;28;20394;-74
2022/05/22 04:33:31;;;;;;;10.85;3.70;;;13.30;99.90;;;12.35;100.00;101209.50;4988671;28;21073;-73
2022/05/22 04:35:58;;;;;;;15.05;4.13;;;13.30;99.90;;;12.32;100.00;101213.16;4989499;28;20498;-73
2022/05/22 04:38:24;;;;;;;18.38;4.40;;;13.40;99.90;;;12.36;100.00;101213.88;5003110;28;20046;-73
2022/05/22 04:41:02;;;;;;;18.02;3.78;;;13.30;99.90;;;12.34;100.00;101215.75;4976860;28;20034;-73
2022/05/22 04:43:30;;;;;;;17.20;4.25;;;13.30;99.90;;;12.34;100.00;101218.38;4987498;28;20551;-72
2022/05/22 04:45:57;;;;;;;16.58;4.38;;;13.40;99.90;;;12.38;100.00;101222.59;4996847;23;20054;-74
2022/05/22 04:48:26;;;;;;;18.50;3.80;;;13.40;99.90;;;12.32;100.00;101223.72;4998946;28;20026;-73
2022/05/22 04:50:53;;;;;;;11.50;3.47;;;13.40;99.90;;;12.36;100.00;101218.31;4998653;28;20032;-73
2022/05/22 04:53:25;;;;;;;18.65;3.70;;;13.40;99.90;;;12.36;100.00;101223.59;4991398;28;20026;-72
2022/05/22 04:55:51;;;;;;;13.07;3.45;;;13.40;99.90;;;12.41;100.00;101222.44;5012857;28;20500;-73
2022/05/22 04:58:18;;;;;;;16.20;3.53;;;13.40;99.90;;;12.44;100.00;101227.59;5001912;28;20053;-73
2022/05/22 05:00:45;;;;;;;20.90;4.00;;;13.40;99.90;;;12.50;100.00;101234.34;5003675;28;20039;-73
2022/05/22 05:03:10;;;;;;;16.98;3.92;;;13.50;99.90;;;12.70;100.00;101226.38;4997619;28;20065;-74
2022/05/22 05:05:36;;;;;;;16.92;4.05;;;13.70;99.90;;;12.78;100.00;101220.69;4976811;28;20034;-73
2022/05/22 05:08:02;;;;;;;16.65;3.80;;;13.70;99.90;;;12.89;100.00;101225.47;5006107;28;20483;-73
2022/05/22 05:10:27;;;;;;;17.35;3.97;;;13.80;99.90;;;12.99;100.00;101233.81;5000897;28;20391;-73
2022/05/22 05:12:53;;;;;;;13.48;3.72;;;14.00;99.90;;;13.17;100.00;101227.63;4992948;28;20064;-74
2022/05/22 05:15:21;;;;;;;17.67;4.18;;;14.00;99.90;;;13.19;100.00;101224.91;4997572;28;20114;-72
2022/05/22 05:17:48;;;;;;;14.00;3.70;;;14.10;99.90;;;13.22;100.00;101228.25;5004800;28;20041;-72
2022/05/22 05:20:18;;;;;;;18.30;4.30;;;14.20;99.90;;;13.37;100.00;101223.16;5017483;28;20038;-73
2022/05/22 05:22:45;;;;;;;15.55;3.85;;;14.30;99.90;;;13.85;100.00;101229.53;4983329;28;21116;-73
2022/05/22 05:25:13;;;;;;;16.48;3.83;;;14.40;99.90;;;13.75;99.61;101229.13;4965305;28;20029;-73
2022/05/22 05:27:39;;;;;;;13.88;3.45;;;14.60;99.90;;;13.74;99.01;101220.34;4997553;28;20018;-73
2022/05/22 05:30:06;;;;;;;17.83;3.88;;;14.60;99.90;;;13.73;97.85;101221.28;4994918;28;20029;-73
2022/05/22 05:32:32;;;;;;;12.68;3.95;;;14.60;99.90;;;13.85;98.11;101232.19;4999166;28;20390;-73
2022/05/22 05:35:03;;;;;;;;;;;14.60;99.90;;;13.74;96.80;101230.94;4993889;28;20038;-73
2022/05/22 05:37:29;;;;;;;15.38;3.20;;;14.70;99.90;;;13.85;97.61;101235.69;5008328;28;19954;-73
2022/05/22 05:39:55;;;;;;;13.35;3.63;;;14.70;99.90;;;13.88;96.78;101229.34;4999033;28;20408;-73
2022/05/22 05:42:23;;;;;;;16.13;3.55;;;14.80;99.90;;;13.87;95.44;101233.81;4985969;28;20509;-73
2022/05/22 05:44:50;;;;;;;9.38;3.20;;;14.80;99.90;;;13.95;95.66;101228.97;5000264;28;20045;-74
2022/05/22 05:47:16;;;;;;;13.70;3.45;;;14.80;99.90;;;14.01;95.49;101237.50;4954114;28;20494;-73
2022/05/22 05:49:42;;;;;;;10.38;3.00;;;14.90;99.90;;;14.08;94.82;101233.59;5027376;28;20076;-73
2022/05/22 05:52:08;;;;;;;11.70;3.45;;;15.00;99.90;;;14.11;94.62;101229.00;4995092;28;20029;-73
2022/05/22 05:54:33;;;;;;;16.33;4.40;;;15.00;99.90;;;14.13;94.45;101223.63;4991104;28;20109;-74
2022/05/22 05:56:59;;;;;;;10.52;3.42;;;15.00;99.90;;;14.09;94.41;101233.53;4994991;28;20037;-73
2022/05/22 05:59:27;;;;;;;13.65;3.22;;;15.00;99.90;;;14.10;94.99;101239.66;4990975;28;20053;-75
2022/05/22 06:01:53;;;;;;;16.67;3.65;;;15.00;99.90;;;14.10;93.96;101237.91;4992514;28;20082;-73
2022/05/22 06:04:20;;;;;;;12.30;4.00;;;15.00;99.90;;;14.02;93.59;101236.59;4995104;28;20026;-74
2022/05/22 06:06:46;;;;;;;10.98;3.13;;;15.00;99.90;;;14.05;93.44;101242.56;4994453;28;20038;-73
2022/05/22 06:09:12;;;;;;;13.90;3.08;;;15.00;99.90;;;14.05;93.17;101236.41;5005761;28;20076;-73
2022/05/22 06:11:38;;;;;;;10.15;2.80;;;15.00;99.90;;;14.18;92.23;101244.56;5004675;28;20029;-73
2022/05/22 06:14:03;;;;;;;14.38;2.83;;;15.10;99.90;;;14.21;91.63;101241.75;4987587;28;20041;-73
2022/05/22 06:16:29;;;;;;;7.40;2.58;;;15.10;99.90;;;14.26;90.40;101251.16;5009635;28;20058;-73
2022/05/22 06:18:56;;;;;;;12.57;3.05;;;15.20;99.90;;;14.34;90.63;101245.44;5008431;28;20144;-73
2022/05/22 06:21:23;;;;;;;13.18;3.33;;;15.30;99.90;;;14.49;90.38;101249.06;4985098;28;20038;-73
2022/05/22 06:23:49;;;;;;;16.48;3.38;;;15.30;99.90;;;14.53;90.42;101248.78;4987431;28;20073;-74
2022/05/22 06:26:17;;;;;;;15.25;4.00;;;15.40;99.90;;;14.62;89.74;101249.25;4982183;28;20074;-73
2022/05/22 06:28:43;;;;;;;8.60;2.50;;;15.50;99.90;;;14.70;88.42;101253.19;4983607;28;20023;-74
2022/05/22 06:31:09;;;;;;;13.52;2.58;;;15.60;99.90;;;15.09;87.28;101251.03;4998088;28;20052;-73
2022/05/22 06:33:35;;;;;;;14.18;2.58;;;15.80;99.90;;;15.37;85.83;101250.31;5000480;28;20046;-71
2022/05/22 06:36:11;;;;;;;9.43;2.65;;;16.00;99.90;;;15.31;82.94;101251.53;4984640;28;20029;-74
2022/05/22 06:41:21;;;;;;;7.13;1.80;;;15.80;99.90;;;14.66;82.45;101258.75;5021929;28;20036;-73
2022/05/22 06:43:51;;;;;;;11.30;2.60;;;15.70;99.90;;;14.53;83.92;101262.03;4980032;28;20042;-73
2022/05/22 06:46:30;;;;;;;6.43;2.17;;;15.60;99.90;;;14.36;85.58;101262.09;4990456;28;20103;-74
2022/05/22 06:48:55;;;;;;;9.25;2.42;;;15.40;99.90;;;14.16;85.29;101264.03;4993653;28;20039;-73
2022/05/22 06:51:21;;;;;;;8.45;2.10;;;15.30;99.90;;;14.23;86.89;101266.34;5002256;28;20469;-73
2022/05/22 06:53:47;;;;;;;;;;;15.30;99.90;;;14.14;86.64;101257.94;4984738;28;20033;-74
2022/05/22 06:56:13;;;;;;;8.27;2.53;;;15.20;99.90;;;14.11;87.59;101263.44;4981510;28;19917;-73
2022/05/22 06:58:38;;;;;;;11.30;2.95;;;15.20;99.90;;;14.07;87.68;101269.81;5004873;28;20030;-73
2022/05/22 07:01:04;;;;;;;;;;;15.20;99.90;;;14.11;87.90;101268.72;5004545;28;20030;-73
2022/05/22 07:03:30;;;;;;;14.40;3.20;;;15.20;99.90;;;14.24;90.30;101268.09;5033174;28;19919;-73
2022/05/22 07:05:56;;;;;;;9.95;2.63;;;15.20;99.90;;;14.35;90.79;101261.25;5012383;28;20096;-76
2022/05/22 07:08:22;;;;;;;15.15;3.58;;;15.40;99.90;;;14.60;91.08;101269.69;4995414;28;20121;-73
2022/05/22 07:13:32;;;;;;;13.05;3.22;;;15.80;99.90;;;15.17;89.51;101275.34;4986333;28;20060;-73
2022/05/22 07:16:00;;;;;;;16.45;3.13;;;16.00;99.90;;;15.44;88.10;101277.34;4986423;28;20028;-73
2022/05/22 07:18:26;;;;;;;12.20;3.17;;;16.20;99.90;;;15.73;85.95;101273.00;5003915;28;20029;-74
2022/05/22 07:20:51;;;;;;;14.57;2.83;;;16.40;99.90;;;15.95;82.67;101268.09;5001178;28;20018;-73
2022/05/22 07:23:17;;;;;;;;;;;16.40;99.90;;;16.45;81.90;101281.03;4998320;28;20049;-73
2022/05/22 07:25:43;;;;;;;10.25;2.83;;;17.20;99.90;;;17.15;79.49;101270.41;5002965;28;20369;-73
2022/05/22 07:28:09;;;;;;;;;;;17.20;99.90;;;17.57;76.54;101265.81;4995325;28;20548;-73
2022/05/22 07:30:34;;;;;;;11.57;2.47;;;18.00;99.90;;;17.67;74.71;101279.34;5016910;28;19939;-73
2022/05/22 07:33:00;;;;;;;7.45;2.50;;;18.00;99.90;;;17.37;74.27;101277.81;4994590;28;20033;-73
2022/05/22 07:35:25;;;;;;;;;;;18.00;99.90;;;17.08;72.78;101277.91;5003562;28;20025;-73
2022/05/22 07:37:52;;;;;;;8.30;2.42;;;17.60;99.90;;;16.56;74.06;101282.06;4996368;28;19913;-74
2022/05/22 07:40:19;;;;;;;10.80;3.17;;;17.50;99.90;;;16.46;75.89;101283.59;5006684;28;20052;-74
2022/05/22 07:42:44;;;;;;;14.50;2.85;;;17.40;99.90;;;16.48;76.73;101281.72;4997395;28;20425;-74
2022/05/22 07:45:14;;;;;;;9.07;1.92;;;17.20;99.90;;;16.08;76.00;101278.84;4995034;28;20042;-74
2022/05/22 07:47:39;;;;;;;9.73;1.83;;;16.90;99.90;;;15.89;75.15;101286.22;5009654;28;20504;-74
2022/05/22 07:50:18;;;;;;;11.77;2.75;;;16.90;99.90;;;15.91;76.33;101281.66;5001727;28;20032;-74
2022/05/22 07:52:50;;;;;;;7.65;2.20;;;16.80;99.90;;;15.79;77.20;101283.28;4990710;28;20485;-74
2022/05/22 07:55:18;;;;;;;11.85;2.45;;;16.60;99.90;;;15.57;78.24;101288.94;4993908;28;20421;-75
2022/05/22 07:57:47;;;;;;;10.05;2.70;;;16.50;99.90;;;15.33;79.74;101285.91;5001302;28;20018;-74
2022/05/22 08:00:18;;;;;;;7.13;2.72;;;16.30;99.90;;;15.04;80.64;101291.09;5004238;28;20095;-74
2022/05/22 08:02:45;;;;;;;6.43;2.15;;;16.00;99.90;;;14.66;82.38;101290.56;5003429;28;20571;-74
2022/05/22 08:05:13;;;;;;;7.82;2.90;;;15.70;99.90;;;14.31;85.29;101285.34;4977259;28;20803;-76
2022/05/22 08:07:39;;;;;;;8.38;2.78;;;15.40;99.90;;;14.14;87.21;101284.44;4993587;28;20375;-74
2022/05/22 08:10:08;;;;;;;9.40;2.72;;;15.30;99.90;;;14.09;88.39;101283.00;4995294;28;20053;-74
2022/05/22 08:12:44;;;;;;;8.20;2.83;;;15.20;99.90;;;14.15;89.83;101275.56;4984296;28;20034;-75
2022/05/22 08:15:13;;;;;;;18.38;3.65;;;15.20;99.90;;;14.27;90.60;101267.91;4969417;28;20553;-75
2022/05/22 08:17:39;;;;;;;9.85;2.85;;;15.30;99.90;;;14.35;90.35;101265.72;4977327;28;20562;-75
2022/05/22 08:20:12;;;;;;;12.27;3.45;;;15.40;99.90;;;14.61;90.44;101266.13;4992667;28;20105;-76
2022/05/22 08:22:40;;;;;;;12.27;2.72;;;15.60;99.90;;;15.09;89.18;101264.31;4991821;28;20050;-75
2022/05/22 08:25:07;;;;;;;9.93;2.88;;;15.90;99.90;;;15.82;84.96;101272.47;4986803;28;20140;-74
2022/05/22 08:27:34;;;;;;;13.00;3.28;;;16.50;99.90;;;16.58;82.36;101277.50;4989362;28;20034;-74
2022/05/22 08:30:00;;;;;;;9.93;2.13;;;16.90;99.90;;;16.95;74.51;101285.84;5000191;28;20117;-74
2022/05/22 08:32:26;;;;;;;12.50;2.38;;;17.30;99.90;;;17.22;72.02;101277.00;4994760;28;20033;-75
2022/05/22 08:34:54;;;;;;;15.27;2.65;;;17.70;99.90;;;17.49;72.60;101276.13;4988524;28;20049;-74
2022/05/22 08:37:20;;;;;;;9.80;2.08;;;17.90;99.90;;;17.66;72.10;101281.16;4984265;28;20615;-75
2022/05/22 08:39:46;;;;;;;8.95;2.60;;;18.00;99.90;;;17.47;71.49;101278.03;4984611;28;20026;-73
2022/05/22 08:42:19;;;;;;;15.73;3.35;;;18.10;99.90;;;17.62;72.79;101279.66;4993049;28;20053;-74
2022/05/22 08:44:51;;;;;;;9.73;2.35;;;18.10;99.90;;;17.46;71.05;101289.66;4987999;28;20040;-75
2022/05/22 08:47:37;;;;;;;9.57;2.65;;;18.20;99.90;;;17.74;72.06;101288.66;5001561;28;20025;-74
2022/05/22 08:50:11;;;;;;;7.05;1.83;;;18.30;99.90;;;17.92;70.38;101281.25;4969932;28;20037;-74
2022/05/22 08:52:45;;;;;;;8.02;1.85;;;18.40;99.90;;;17.98;68.53;101281.66;4984535;28;20561;-74
2022/05/22 08:58:56;;;;;;;7.80;2.78;;;18.50;99.90;;;18.00;67.45;101284.22;4976906;28;20117;-74
2022/05/22 09:01:21;;;;;;;12.77;2.40;;;18.60;99.90;;;17.92;70.14;101298.06;5001876;28;20129;-74
2022/05/22 09:04:30;;;;;;;6.57;2.17;;;18.50;99.90;;;17.65;70.01;101303.44;4988388;28;20044;-75
2022/05/22 09:07:22;;;;;;;6.00;1.90;;;18.30;99.90;;;17.19;70.60;101306.47;4989738;28;20032;-75
2022/05/22 09:10:17;;;;;;;5.68;2.00;;;17.90;99.90;;;16.63;71.24;101308.25;5000921;28;20113;-74
2022/05/22 09:12:58;;;;;;;8.82;2.60;;;17.60;99.90;;;16.52;73.53;101303.63;5000054;28;20026;-74
2022/05/22 09:16:11;;;;;;;13.63;2.22;;;17.50;99.90;;;16.54;72.60;101302.59;5004128;28;20030;-75
2022/05/22 09:19:20;;;;;;;12.98;2.38;;;17.40;99.90;;;16.40;72.26;101305.25;5000248;28;20032;-74
2022/05/22 09:22:24;;;;;;;7.20;1.98;;;17.20;99.90;;;16.19;74.09;101305.59;4940256;28;20035;-74
2022/05/22 09:25:24;;;;;;;8.95;2.25;;;17.10;99.90;;;16.19;74.57;101302.94;4983032;28;20030;-74
2022/05/22 09:28:28;;;;;;;7.90;2.20;;;17.10;99.90;;;16.15;74.12;101303.22;4978896;28;20033;-74
2022/05/22 09:31:06;;;;;;;10.70;2.58;;;17.10;99.90;;;16.14;74.41;101309.50;4985502;28;20034;-74
2022/05/22 09:34:18;;;;;;;7.28;2.13;;;16.90;99.90;;;15.72;74.61;101304.03;4978307;28;20030;-74
2022/05/22 09:37:02;;;;;;;10.63;2.90;;;16.60;99.90;;;15.37;77.51;101301.56;4994026;28;20556;-74
2022/05/22 09:39:59;;;;;;;7.63;2.47;;;16.40;99.90;;;15.16;80.95;101305.44;5017351;28;20039;-74
2022/05/22 09:43:18;;;;;;;8.80;2.35;;;16.30;99.90;;;15.44;82.23;101299.41;4981775;28;20052;-75
2022/05/22 09:46:34;;;;;;;5.75;2.47;;;16.50;99.90;;;15.89;80.31;101296.84;5001869;28;20041;-74
2022/05/22 09:49:50;;;;;;;10.57;2.20;;;16.80;99.90;;;16.43;77.41;101310.38;5001221;28;20018;-74
2022/05/22 09:53:16;;;;;;;7.57;2.17;;;17.10;99.90;;;16.72;76.26;101299.72;4984227;28;20115;-75
2022/05/22 09:55:55;;;;;;;9.10;2.35;;;17.40;99.90;;;16.78;75.83;101301.97;4981586;28;20033;-75
2022/05/22 09:59:17;;;;;;;7.82;2.50;;;17.50;99.90;;;16.84;75.23;101312.25;4957397;28;20390;-75
2022/05/22 10:01:55;;;;;;;10.48;2.70;;;17.50;99.90;;;16.78;75.98;101308.16;4977157;28;21117;-74
2022/05/22 10:04:56;;;;;;;6.35;1.98;;;17.50;99.90;;;16.64;75.08;101310.84;4998221;28;20029;-75
2022/05/22 10:08:06;;;;;;;6.22;2.08;;;17.40;99.90;;;16.47;74.86;101311.88;4978997;28;20026;-74
2022/05/22 10:11:15;;;;;;;6.28;2.30;;;17.50;99.90;;;16.88;74.57;101304.94;4992916;28;20033;-74
2022/05/22 10:14:09;;;;;;;8.10;2.67;;;17.60;99.90;;;17.00;72.38;101312.16;4983893;28;20576;-74
2022/05/22 10:17:06;;;;;;;7.28;2.65;;;17.70;99.90;;;17.07;72.47;101313.47;4988914;28;20121;-74
2022/05/22 10:19:57;;;;;;;10.15;2.80;;;17.80;99.90;;;17.28;72.43;101313.00;5002221;28;20066;-74
2022/05/22 10:23:00;;;;;;;10.15;3.05;;;17.90;99.90;;;17.19;71.38;101325.09;4991611;28;20510;-75
2022/05/22 10:26:14;;;;;;;8.63;2.53;;;17.90;99.90;;;16.94;72.02;101317.88;4982509;28;20036;-75
2022/05/22 10:29:23;;;;;;;13.05;2.78;;;17.70;99.90;;;16.58;72.76;101325.34;5002839;28;20037;-74
2022/05/22 10:32:25;;;;;;;7.15;2.35;;;17.50;99.90;;;16.42;73.92;101332.59;4994159;28;20514;-74
2022/05/22 10:35:34;;;;;;;6.80;2.50;;;17.40;99.90;;;16.43;74.57;101326.31;4992089;28;20405;-75
2022/05/22 10:38:45;;;;;;;5.20;2.40;;;17.40;99.90;;;16.75;73.63;101336.75;4928883;28;20094;-74
2022/05/22 10:44:40;;;;;;;9.98;2.70;;;17.80;99.90;;;17.35;71.32;101336.47;4999525;28;20107;-74